createdAt,value
2017-06-14T00:00:19.639Z,0
2017-06-14T00:01:20.886Z,0
2017-06-14T00:02:22.127Z,0
2017-06-14T00:03:23.352Z,0
2017-06-14T00:04:24.591Z,0
2017-06-14T00:05:25.833Z,0
2017-06-14T00:06:27.140Z,0
2017-06-14T00:07:28.334Z,0
2017-06-14T00:08:29.759Z,0
2017-06-14T00:09:31.152Z,0
2017-06-14T00:10:32.430Z,0
2017-06-14T00:11:33.676Z,0
2017-06-14T00:12:35.000Z,0
2017-06-14T00:13:36.246Z,0
2017-06-14T00:14:37.606Z,0
2017-06-14T00:15:38.887Z,0
2017-06-14T00:16:40.126Z,0
2017-06-14T00:17:41.382Z,0
2017-06-14T00:18:42.623Z,0
2017-06-14T00:19:43.920Z,0
2017-06-14T00:20:45.170Z,0
2017-06-14T00:21:46.408Z,0
2017-06-14T00:22:47.682Z,0
2017-06-14T00:23:48.908Z,0
2017-06-14T00:24:50.212Z,0
2017-06-14T00:25:51.546Z,0
2017-06-14T00:26:52.788Z,0
2017-06-14T00:27:54.043Z,0
2017-06-14T00:28:55.292Z,0
2017-06-14T00:29:56.533Z,0
2017-06-14T00:30:57.798Z,0
2017-06-14T00:31:59.151Z,0
2017-06-14T00:33:00.392Z,0
2017-06-14T00:34:01.639Z,0
2017-06-14T00:35:02.881Z,0
2017-06-14T00:36:04.191Z,0
2017-06-14T00:37:05.444Z,0
2017-06-14T00:38:06.697Z,0
2017-06-14T00:39:07.938Z,0
2017-06-14T00:40:09.261Z,0
2017-06-14T00:41:10.522Z,0
2017-06-14T00:42:11.760Z,0
2017-06-14T00:43:13.069Z,0
2017-06-14T00:44:14.266Z,0
2017-06-14T00:45:15.600Z,0
2017-06-14T00:46:16.929Z,0
2017-06-14T00:47:18.178Z,0
2017-06-14T00:48:19.424Z,0
2017-06-14T00:49:20.674Z,0
2017-06-14T00:50:21.914Z,0
2017-06-14T00:51:23.158Z,0
2017-06-14T00:52:24.394Z,0
2017-06-14T00:53:25.634Z,0
2017-06-14T00:54:26.894Z,0
2017-06-14T00:55:28.142Z,0
2017-06-14T00:56:29.385Z,0
2017-06-14T00:57:30.621Z,0
2017-06-14T00:58:31.975Z,0
2017-06-14T00:59:33.247Z,0
2017-06-14T01:00:34.496Z,0
2017-06-14T01:01:35.727Z,0
2017-06-14T01:02:37.001Z,0
2017-06-14T01:03:38.245Z,0
2017-06-14T01:04:39.484Z,0
2017-06-14T01:05:40.758Z,0
2017-06-14T01:06:42.000Z,0
2017-06-14T01:07:43.245Z,0
2017-06-14T01:08:44.476Z,0
2017-06-14T01:09:45.848Z,0
2017-06-14T01:10:47.093Z,0
2017-06-14T01:11:48.340Z,0
2017-06-14T01:12:49.586Z,0
2017-06-14T01:13:50.825Z,0
2017-06-14T01:14:52.078Z,0
2017-06-14T01:15:53.331Z,0
2017-06-14T01:16:54.573Z,0
2017-06-14T01:17:55.811Z,0
2017-06-14T01:18:57.080Z,0
2017-06-14T01:19:58.327Z,0
2017-06-14T01:20:59.569Z,0
2017-06-14T01:22:00.818Z,0
2017-06-14T01:23:02.068Z,0
2017-06-14T01:24:03.294Z,0
2017-06-14T01:25:04.536Z,0
2017-06-14T01:26:05.777Z,0
2017-06-14T01:27:07.013Z,0
2017-06-14T01:28:08.282Z,0
2017-06-14T01:29:09.520Z,0
2017-06-14T01:30:10.775Z,0
2017-06-14T01:31:12.048Z,0
2017-06-14T01:32:13.326Z,0
2017-06-14T01:33:14.575Z,0
2017-06-14T01:34:15.860Z,0
2017-06-14T01:35:17.181Z,0
2017-06-14T01:36:18.448Z,0
2017-06-14T01:37:19.794Z,0
2017-06-14T01:38:21.052Z,0
2017-06-14T01:39:22.295Z,0
2017-06-14T01:40:23.592Z,0
2017-06-14T01:41:24.831Z,0
2017-06-14T01:42:26.068Z,0
2017-06-14T01:43:27.309Z,0
2017-06-14T01:44:28.550Z,0
2017-06-14T01:45:29.815Z,0
2017-06-14T01:46:31.099Z,0
2017-06-14T01:47:32.358Z,0
2017-06-14T01:48:33.707Z,0
2017-06-14T01:49:35.016Z,0
2017-06-14T01:50:36.244Z,0
2017-06-14T01:51:37.530Z,0
2017-06-14T01:52:38.740Z,0
2017-06-14T01:53:39.981Z,0
2017-06-14T01:54:41.228Z,0
2017-06-14T01:55:42.518Z,0
2017-06-14T01:56:43.766Z,0
2017-06-14T01:57:44.999Z,0
2017-06-14T01:58:46.228Z,0
2017-06-14T01:59:47.595Z,0
2017-06-14T02:00:48.839Z,0
2017-06-14T02:01:50.102Z,0
2017-06-14T02:02:51.345Z,0
2017-06-14T02:03:52.618Z,0
2017-06-14T02:04:53.833Z,0
2017-06-14T02:05:55.094Z,0
2017-06-14T02:06:56.343Z,0
2017-06-14T02:07:57.592Z,0
2017-06-14T02:08:58.833Z,0
2017-06-14T02:10:00.072Z,0
2017-06-14T02:11:01.317Z,0
2017-06-14T02:12:02.588Z,0
2017-06-14T02:13:03.809Z,0
2017-06-14T02:14:05.068Z,0
2017-06-14T02:15:06.303Z,0
2017-06-14T02:16:07.556Z,0
2017-06-14T02:17:08.796Z,0
2017-06-14T02:18:10.042Z,0
2017-06-14T02:19:11.285Z,4
2017-06-14T02:20:12.557Z,4
2017-06-14T02:21:13.880Z,0
2017-06-14T02:22:15.152Z,0
2017-06-14T02:23:16.396Z,0
2017-06-14T02:24:17.638Z,4
2017-06-14T02:25:19.009Z,4
2017-06-14T02:26:20.259Z,0
2017-06-14T02:27:21.580Z,4
2017-06-14T02:28:22.834Z,4
2017-06-14T02:29:24.075Z,4
2017-06-14T02:30:25.317Z,8
2017-06-14T02:31:26.544Z,4
2017-06-14T02:32:27.860Z,8
2017-06-14T02:33:29.136Z,8
2017-06-14T02:34:30.350Z,8
2017-06-14T02:35:31.601Z,8
2017-06-14T02:36:32.849Z,12
2017-06-14T02:37:34.130Z,12
2017-06-14T02:38:35.433Z,12
2017-06-14T02:39:36.672Z,16
2017-06-14T02:40:37.923Z,16
2017-06-14T02:41:39.189Z,20
2017-06-14T02:42:40.461Z,24
2017-06-14T02:43:41.690Z,24
2017-06-14T02:44:42.971Z,28
2017-06-14T02:45:44.198Z,28
2017-06-14T02:46:45.449Z,36
2017-06-14T02:47:46.671Z,40
2017-06-14T02:48:47.913Z,44
2017-06-14T02:49:49.173Z,48
2017-06-14T02:50:50.407Z,56
2017-06-14T02:51:51.780Z,60
2017-06-14T02:52:53.035Z,68
2017-06-14T02:53:54.293Z,76
2017-06-14T02:54:55.531Z,80
2017-06-14T02:55:56.762Z,88
2017-06-14T02:56:58.047Z,100
2017-06-14T02:57:59.327Z,104
2017-06-14T02:59:00.573Z,112
2017-06-14T03:00:01.828Z,120
2017-06-14T03:01:03.099Z,132
2017-06-14T03:02:04.337Z,140
2017-06-14T03:03:05.576Z,152
2017-06-14T03:04:06.833Z,164
2017-06-14T03:05:08.143Z,176
2017-06-14T03:06:09.391Z,192
2017-06-14T03:07:10.610Z,208
2017-06-14T03:08:11.846Z,224
2017-06-14T03:09:13.083Z,240
2017-06-14T03:10:14.341Z,256
2017-06-14T03:11:15.854Z,276
2017-06-14T03:12:17.088Z,288
2017-06-14T03:13:18.348Z,312
2017-06-14T03:14:19.565Z,332
2017-06-14T03:15:20.816Z,356
2017-06-14T03:16:22.060Z,380
2017-06-14T03:17:23.384Z,408
2017-06-14T03:18:24.613Z,436
2017-06-14T03:19:25.858Z,460
2017-06-14T03:20:27.113Z,488
2017-06-14T03:21:28.352Z,512
2017-06-14T03:22:29.651Z,544
2017-06-14T03:23:30.890Z,572
2017-06-14T03:24:32.139Z,600
2017-06-14T03:25:33.402Z,628
2017-06-14T03:26:34.642Z,656
2017-06-14T03:27:35.876Z,692
2017-06-14T03:28:37.139Z,728
2017-06-14T03:29:38.402Z,768
2017-06-14T03:30:39.659Z,804
2017-06-14T03:31:40.952Z,836
2017-06-14T03:32:42.159Z,872
2017-06-14T03:33:43.462Z,912
2017-06-14T03:34:44.703Z,956
2017-06-14T03:35:46.069Z,1000
2017-06-14T03:36:47.304Z,1044
2017-06-14T03:37:48.540Z,1084
2017-06-14T03:38:49.778Z,1116
2017-06-14T03:39:51.029Z,1152
2017-06-14T03:40:52.369Z,1180
2017-06-14T03:41:53.674Z,1200
2017-06-14T03:42:54.925Z,1224
2017-06-14T03:43:56.167Z,1256
2017-06-14T03:44:57.554Z,1288
2017-06-14T03:45:58.795Z,1320
2017-06-14T03:47:00.081Z,1364
2017-06-14T03:48:01.519Z,1404
2017-06-14T03:49:02.842Z,1444
2017-06-14T03:50:04.035Z,1476
2017-06-14T03:51:05.278Z,1512
2017-06-14T03:52:06.525Z,1548
2017-06-14T03:53:07.888Z,1572
2017-06-14T03:54:09.196Z,1576
2017-06-14T03:55:10.434Z,1596
2017-06-14T03:56:11.700Z,1632
2017-06-14T03:57:12.924Z,1668
2017-06-14T03:58:14.249Z,1696
2017-06-14T03:59:15.500Z,1720
2017-06-14T04:00:16.765Z,1748
2017-06-14T04:01:18.016Z,1776
2017-06-14T04:02:19.278Z,1940
2017-06-14T04:03:20.502Z,2172
2017-06-14T04:04:21.747Z,2232
2017-06-14T04:05:23.060Z,2140
2017-06-14T04:06:24.307Z,2132
2017-06-14T04:07:25.585Z,2068
2017-06-14T04:08:26.784Z,1956
2017-06-14T04:09:28.038Z,1968
2017-06-14T04:10:29.295Z,2048
2017-06-14T04:11:30.530Z,2100
2017-06-14T04:12:31.804Z,2084
2017-06-14T04:13:33.050Z,1996
2017-06-14T04:14:34.280Z,2008
2017-06-14T04:15:35.525Z,2032
2017-06-14T04:16:36.781Z,2076
2017-06-14T04:17:38.071Z,2172
2017-06-14T04:18:39.286Z,2260
2017-06-14T04:19:40.540Z,2312
2017-06-14T04:20:41.770Z,2328
2017-06-14T04:21:43.072Z,2360
2017-06-14T04:22:44.314Z,2424
2017-06-14T04:23:45.548Z,2440
2017-06-14T04:24:46.800Z,2660
2017-06-14T04:25:48.149Z,2784
2017-06-14T04:26:49.388Z,2620
2017-06-14T04:27:50.631Z,2548
2017-06-14T04:28:51.888Z,2544
2017-06-14T04:29:53.101Z,2568
2017-06-14T04:30:54.342Z,2608
2017-06-14T04:31:55.595Z,2688
2017-06-14T04:32:56.962Z,2804
2017-06-14T04:33:58.205Z,2832
2017-06-14T04:34:59.472Z,2968
2017-06-14T04:36:00.713Z,3012
2017-06-14T04:37:02.070Z,3304
2017-06-14T04:38:03.347Z,3420
2017-06-14T04:39:04.626Z,3108
2017-06-14T04:40:05.870Z,2912
2017-06-14T04:41:07.148Z,2852
2017-06-14T04:42:08.369Z,2820
2017-06-14T04:43:09.662Z,2784
2017-06-14T04:44:10.913Z,2788
2017-06-14T04:45:12.174Z,2848
2017-06-14T04:46:13.424Z,2896
2017-06-14T04:47:14.656Z,2924
2017-06-14T04:48:15.905Z,2940
2017-06-14T04:49:17.155Z,2948
2017-06-14T04:50:18.425Z,2964
2017-06-14T04:51:19.751Z,3004
2017-06-14T04:52:21.023Z,3088
2017-06-14T04:53:22.281Z,3424
2017-06-14T04:54:23.578Z,4072
2017-06-14T04:55:24.827Z,4884
2017-06-14T04:56:26.200Z,4896
2017-06-14T04:57:27.463Z,4460
2017-06-14T04:58:28.706Z,4132
2017-06-14T04:59:29.947Z,4068
2017-06-14T05:00:31.182Z,4612
2017-06-14T05:01:32.571Z,5548
2017-06-14T05:02:33.871Z,5008
2017-06-14T05:03:35.109Z,4132
2017-06-14T05:04:36.378Z,3672
2017-06-14T05:05:37.617Z,3580
2017-06-14T05:06:38.860Z,4768
2017-06-14T05:07:40.107Z,6152
2017-06-14T05:08:41.450Z,8228
2017-06-14T05:09:42.764Z,9868
2017-06-14T05:10:44.030Z,9132
2017-06-14T05:11:45.261Z,5884
2017-06-14T05:12:46.504Z,5792
2017-06-14T05:13:47.759Z,5952
2017-06-14T05:14:49.012Z,5704
2017-06-14T05:15:50.265Z,6596
2017-06-14T05:16:51.648Z,5952
2017-06-14T05:17:52.892Z,6032
2017-06-14T05:18:54.175Z,7128
2017-06-14T05:19:55.408Z,6972
2017-06-14T05:20:56.650Z,6888
2017-06-14T05:21:57.959Z,6572
2017-06-14T05:22:59.305Z,5920
2017-06-14T05:24:00.567Z,5208
2017-06-14T05:25:01.797Z,5404
2017-06-14T05:26:03.194Z,5768
2017-06-14T05:27:04.326Z,4936
2017-06-14T05:28:05.624Z,4432
2017-06-14T05:29:06.870Z,4436
2017-06-14T05:30:08.109Z,4768
2017-06-14T05:31:09.355Z,5536
2017-06-14T05:32:10.721Z,5748
2017-06-14T05:33:12.047Z,5672
2017-06-14T05:34:13.338Z,6592
2017-06-14T05:35:14.570Z,7116
2017-06-14T05:36:15.816Z,8220
2017-06-14T05:37:17.067Z,13980
2017-06-14T05:38:18.362Z,20896
2017-06-14T05:39:19.613Z,23552
2017-06-14T05:40:21.025Z,24416
2017-06-14T05:41:22.272Z,25248
2017-06-14T05:42:23.528Z,25472
2017-06-14T05:43:24.768Z,25632
2017-06-14T05:44:26.030Z,25824
2017-06-14T05:45:27.337Z,25984
2017-06-14T05:46:28.602Z,26560
2017-06-14T05:47:29.863Z,26720
2017-06-14T05:48:31.124Z,26976
2017-06-14T05:49:32.460Z,27136
2017-06-14T05:50:33.714Z,27392
2017-06-14T05:51:35.003Z,27872
2017-06-14T05:52:36.230Z,27936
2017-06-14T05:53:37.493Z,28512
2017-06-14T05:54:38.758Z,29120
2017-06-14T05:55:40.001Z,29568
2017-06-14T05:56:41.256Z,30240
2017-06-14T05:57:42.512Z,30208
2017-06-14T05:58:43.820Z,31008
2017-06-14T05:59:45.077Z,31360
2017-06-14T06:00:46.334Z,31488
2017-06-14T06:01:47.634Z,31904
2017-06-14T06:02:48.854Z,32576
2017-06-14T06:03:50.139Z,32384
2017-06-14T06:04:51.527Z,32288
2017-06-14T06:05:52.802Z,32768
2017-06-14T06:06:54.040Z,32480
2017-06-14T06:07:55.354Z,33632
2017-06-14T06:08:56.548Z,34624
2017-06-14T06:09:57.818Z,34528
2017-06-14T06:10:59.076Z,35392
2017-06-14T06:12:00.325Z,35456
2017-06-14T06:13:01.598Z,35456
2017-06-14T06:14:02.821Z,36160
2017-06-14T06:15:04.145Z,35936
2017-06-14T06:16:05.419Z,36736
2017-06-14T06:17:06.695Z,37440
2017-06-14T06:18:07.961Z,38304
2017-06-14T06:19:09.209Z,37888
2017-06-14T06:20:10.488Z,37888
2017-06-14T06:21:11.748Z,38912
2017-06-14T06:22:13.001Z,39296
2017-06-14T06:23:14.287Z,38496
2017-06-14T06:24:15.548Z,39456
2017-06-14T06:25:16.818Z,40992
2017-06-14T06:26:18.066Z,40448
2017-06-14T06:27:19.344Z,39232
2017-06-14T06:28:20.631Z,38592
2017-06-14T06:29:21.869Z,39104
2017-06-14T06:30:23.138Z,39296
2017-06-14T06:31:24.402Z,40224
2017-06-14T06:32:25.651Z,39712
2017-06-14T06:33:26.926Z,38720
2017-06-14T06:34:28.178Z,39488
2017-06-14T06:35:29.434Z,40544
2017-06-14T06:36:30.688Z,41952
2017-06-14T06:37:31.954Z,43552
2017-06-14T06:38:33.232Z,41792
2017-06-14T06:39:34.478Z,40704
2017-06-14T06:40:35.729Z,42752
2017-06-14T06:41:36.995Z,40736
2017-06-14T06:42:38.260Z,42368
2017-06-14T06:43:39.525Z,44832
2017-06-14T06:44:40.770Z,47392
2017-06-14T06:45:42.047Z,49760
2017-06-14T06:46:43.394Z,50400
2017-06-14T06:47:44.685Z,48128
2017-06-14T06:48:45.963Z,49248
2017-06-14T06:49:47.193Z,51968
2017-06-14T06:50:48.439Z,53600
2017-06-14T06:51:49.691Z,52992
2017-06-14T06:52:51.016Z,51552
2017-06-14T06:53:52.286Z,50944
2017-06-14T06:54:53.544Z,53984
2017-06-14T06:55:54.791Z,55648
2017-06-14T06:56:56.041Z,54912
2017-06-14T06:57:57.301Z,55264
2017-06-14T06:58:58.547Z,57408
2017-06-14T06:59:59.924Z,55072
2017-06-14T07:01:01.187Z,55936
2017-06-14T07:02:02.442Z,57440
2017-06-14T07:03:03.693Z,59488
2017-06-14T07:04:04.948Z,60768
2017-06-14T07:05:06.200Z,51328
2017-06-14T07:06:07.489Z,55968
2017-06-14T07:07:08.756Z,54496
2017-06-14T07:08:10.004Z,54848
2017-06-14T07:09:11.267Z,65056
2017-06-14T07:10:12.527Z,62912
2017-06-14T07:11:13.795Z,57728
2017-06-14T07:12:15.045Z,56256
2017-06-14T07:13:16.295Z,57888
2017-06-14T07:14:17.587Z,59136
2017-06-14T07:15:18.833Z,59712
2017-06-14T07:16:20.105Z,60192
2017-06-14T07:17:21.345Z,60864
2017-06-14T07:18:22.615Z,67680
2017-06-14T07:19:23.901Z,68096
2017-06-14T07:20:25.150Z,67232
2017-06-14T07:21:26.407Z,56864
2017-06-14T07:22:27.670Z,56672
2017-06-14T07:23:29.101Z,54784
2017-06-14T07:24:30.243Z,60960
2017-06-14T07:25:31.522Z,59872
2017-06-14T07:26:32.756Z,60832
2017-06-14T07:27:34.021Z,64256
2017-06-14T07:28:35.291Z,63904
2017-06-14T07:29:36.559Z,63520
2017-06-14T07:30:37.850Z,60832
2017-06-14T07:31:39.104Z,59008
2017-06-14T07:32:40.387Z,67136
2017-06-14T07:33:41.641Z,71360
2017-06-14T07:34:42.894Z,64512
2017-06-14T07:35:44.305Z,58112
2017-06-14T07:36:45.623Z,55136
2017-06-14T07:37:46.897Z,45984
2017-06-14T07:38:48.153Z,44736
2017-06-14T07:39:49.400Z,42400
2017-06-14T07:40:50.658Z,41056
2017-06-14T07:41:51.921Z,43040
2017-06-14T07:42:53.187Z,45824
2017-06-14T07:43:54.433Z,49600
2017-06-14T07:44:55.693Z,56800
2017-06-14T07:45:56.957Z,60192
2017-06-14T07:46:58.204Z,59488
2017-06-14T07:47:59.465Z,59168
2017-06-14T07:49:00.768Z,61344
2017-06-14T07:50:02.022Z,65440
2017-06-14T07:51:03.304Z,67808
2017-06-14T07:52:04.552Z,65792
2017-06-14T07:53:05.827Z,69760
2017-06-14T07:54:07.186Z,77376
2017-06-14T07:55:08.378Z,79424
2017-06-14T07:56:09.636Z,76992
2017-06-14T07:57:10.895Z,74208
2017-06-14T07:58:12.144Z,71360
2017-06-14T07:59:13.422Z,69536
2017-06-14T08:00:14.674Z,71648
2017-06-14T08:01:16.249Z,79456
2017-06-14T08:02:17.540Z,83168
2017-06-14T08:03:18.809Z,80928
2017-06-14T08:04:20.120Z,82272
2017-06-14T08:05:21.373Z,79104
2017-06-14T08:06:22.667Z,77664
2017-06-14T08:07:23.995Z,75488
2017-06-14T08:08:25.269Z,74560
2017-06-14T08:09:26.543Z,75072
2017-06-14T08:10:27.776Z,74976
2017-06-14T08:11:29.151Z,77344
2017-06-14T08:12:30.304Z,79456
2017-06-14T08:13:31.582Z,78240
2017-06-14T08:14:32.837Z,76960
2017-06-14T08:15:34.120Z,74432
2017-06-14T08:16:35.439Z,75008
2017-06-14T08:17:36.695Z,75552
2017-06-14T08:18:38.010Z,76768
2017-06-14T08:19:39.288Z,72192
2017-06-14T08:20:40.561Z,72064
2017-06-14T08:21:41.805Z,74912
2017-06-14T08:22:43.102Z,74400
2017-06-14T08:23:44.327Z,74240
2017-06-14T08:24:45.648Z,77088
2017-06-14T08:25:46.920Z,77664
2017-06-14T08:26:48.159Z,72320
2017-06-14T08:27:49.469Z,70016
2017-06-14T08:28:50.720Z,71104
2017-06-14T08:29:52.034Z,68352
2017-06-14T08:30:53.349Z,71840
2017-06-14T08:31:54.615Z,77472
2017-06-14T08:32:55.875Z,76544
2017-06-14T08:33:57.142Z,76384
2017-06-14T08:34:58.401Z,79232
2017-06-14T08:35:59.663Z,81952
2017-06-14T08:37:00.943Z,82912
2017-06-14T08:38:02.196Z,81664
2017-06-14T08:39:03.479Z,83680
2017-06-14T08:40:04.734Z,85952
2017-06-14T08:41:06.001Z,86784
2017-06-14T08:42:07.271Z,85568
2017-06-14T08:43:08.525Z,84448
2017-06-14T08:44:09.841Z,85696
2017-06-14T08:45:11.077Z,89504
2017-06-14T08:46:12.346Z,93600
2017-06-14T08:47:13.623Z,92032
2017-06-14T08:48:14.899Z,87264
2017-06-14T08:49:16.175Z,86976
2017-06-14T08:50:17.589Z,88672
2017-06-14T08:51:18.856Z,85920
2017-06-14T08:52:20.116Z,85152
2017-06-14T08:53:21.473Z,84608
2017-06-14T08:54:22.706Z,82848
2017-06-14T08:55:24.011Z,83968
2017-06-14T08:56:25.298Z,86784
2017-06-14T08:57:26.551Z,90336
2017-06-14T08:58:27.813Z,90944
2017-06-14T08:59:29.238Z,89184
2017-06-14T09:00:30.402Z,91008
2017-06-14T09:01:31.666Z,90272
2017-06-14T09:02:32.927Z,86880
2017-06-14T09:03:34.196Z,85760
2017-06-14T09:04:35.522Z,88032
2017-06-14T09:05:36.792Z,91424
2017-06-14T09:06:38.063Z,89792
2017-06-14T09:07:39.316Z,90880
2017-06-14T09:08:40.585Z,94752
2017-06-14T09:09:41.864Z,97280
2017-06-14T09:10:43.129Z,94624
2017-06-14T09:11:44.400Z,95648
2017-06-14T09:12:45.661Z,94368
2017-06-14T09:13:46.930Z,92896
2017-06-14T09:14:48.197Z,95968
2017-06-14T09:15:49.496Z,101056
2017-06-14T09:16:50.733Z,96608
2017-06-14T09:17:51.996Z,95968
2017-06-14T09:18:53.283Z,100352
2017-06-14T09:19:54.564Z,100384
2017-06-14T09:20:55.831Z,97536
2017-06-14T09:21:57.098Z,95904
2017-06-14T09:22:58.433Z,96000
2017-06-14T09:23:59.700Z,92128
2017-06-14T09:25:01.008Z,90496
2017-06-14T09:26:02.256Z,92800
2017-06-14T09:27:03.546Z,93728
2017-06-14T09:28:04.820Z,92320
2017-06-14T09:29:06.090Z,95072
2017-06-14T09:30:07.393Z,96480
2017-06-14T09:31:08.666Z,98048
2017-06-14T09:32:09.988Z,97536
2017-06-14T09:33:11.247Z,97504
2017-06-14T09:34:12.521Z,97664
2017-06-14T09:35:13.834Z,96672
2017-06-14T09:36:15.201Z,97440
2017-06-14T09:37:16.486Z,99456
2017-06-14T09:38:17.753Z,100576
2017-06-14T09:39:19.014Z,102400
2017-06-14T09:40:20.291Z,102080
2017-06-14T09:41:21.584Z,98912
2017-06-14T09:42:23.001Z,97504
2017-06-14T09:43:24.260Z,102144
2017-06-14T09:44:25.580Z,106752
2017-06-14T09:45:26.830Z,104544
2017-06-14T09:46:28.099Z,99936
2017-06-14T09:47:29.502Z,102720
2017-06-14T09:48:30.827Z,104800
2017-06-14T09:49:32.094Z,108480
2017-06-14T09:50:33.373Z,107488
2017-06-14T09:51:34.634Z,103136
2017-06-14T09:52:35.930Z,102176
2017-06-14T09:53:37.210Z,105184
2017-06-14T09:54:38.489Z,107168
2017-06-14T09:55:39.760Z,109152
2017-06-14T09:56:41.039Z,111200
2017-06-14T09:57:42.536Z,112672
2017-06-14T09:58:44.039Z,111328
2017-06-14T09:59:45.359Z,108864
2017-06-14T10:00:46.634Z,112384
2017-06-14T10:01:47.912Z,111968
2017-06-14T10:02:49.276Z,109184
2017-06-14T10:03:50.536Z,107520
2017-06-14T10:04:51.885Z,107200
2017-06-14T10:05:53.125Z,102624
2017-06-14T10:06:54.363Z,92320
2017-06-14T10:07:55.693Z,86048
2017-06-14T10:08:56.922Z,87328
2017-06-14T10:09:58.199Z,91008
2017-06-14T10:10:59.458Z,93696
2017-06-14T10:12:00.721Z,92800
2017-06-14T10:13:01.992Z,93920
2017-06-14T10:14:03.277Z,93280
2017-06-14T10:15:04.530Z,93664
2017-06-14T10:16:05.791Z,92544
2017-06-14T10:17:07.068Z,85536
2017-06-14T10:18:08.340Z,90688
2017-06-14T10:19:09.598Z,92992
2017-06-14T10:20:10.865Z,91424
2017-06-14T10:21:12.131Z,90560
2017-06-14T10:22:13.491Z,89024
2017-06-14T10:23:14.776Z,88064
2017-06-14T10:24:16.069Z,84928
2017-06-14T10:25:17.342Z,81120
2017-06-14T10:26:18.605Z,76480
2017-06-14T10:27:19.875Z,77632
2017-06-14T10:28:21.158Z,76384
2017-06-14T10:29:22.400Z,78528
2017-06-14T10:30:23.699Z,79456
2017-06-14T10:31:24.967Z,84416
2017-06-14T10:32:26.229Z,82304
2017-06-14T10:33:27.502Z,83936
2017-06-14T10:34:28.761Z,84096
2017-06-14T10:35:30.162Z,54784
2017-06-14T10:36:31.418Z,15840
2017-06-14T10:37:32.670Z,8072
2017-06-14T10:38:33.938Z,7148
2017-06-14T10:39:35.215Z,6592
2017-06-14T10:40:36.462Z,6264
2017-06-14T10:41:37.729Z,6096
2017-06-14T10:42:39.009Z,5836
2017-06-14T10:43:40.260Z,5652
2017-06-14T10:44:41.680Z,5480
2017-06-14T10:45:42.985Z,5384
2017-06-14T10:46:44.227Z,5320
2017-06-14T10:47:45.539Z,5308
2017-06-14T10:48:46.801Z,5364
2017-06-14T10:49:48.041Z,5444
2017-06-14T10:50:49.422Z,5488
2017-06-14T10:51:50.651Z,5520
2017-06-14T10:52:51.954Z,5556
2017-06-14T10:53:53.225Z,5560
2017-06-14T10:54:54.478Z,5572
2017-06-14T10:55:55.725Z,5524
2017-06-14T10:56:56.988Z,5444
2017-06-14T10:57:58.341Z,5368
2017-06-14T10:58:59.622Z,5272
2017-06-14T11:00:00.871Z,5196
2017-06-14T11:01:02.120Z,5156
2017-06-14T11:02:03.383Z,5168
2017-06-14T11:03:04.639Z,5228
2017-06-14T11:04:06.097Z,5328
2017-06-14T11:05:07.348Z,5496
2017-06-14T11:06:08.599Z,5632
2017-06-14T11:07:09.904Z,5688
2017-06-14T11:08:11.153Z,5672
2017-06-14T11:09:12.424Z,5716
2017-06-14T11:10:13.782Z,5752
2017-06-14T11:11:15.032Z,5736
2017-06-14T11:12:16.297Z,5760
2017-06-14T11:13:17.536Z,5828
2017-06-14T11:14:18.842Z,5856
2017-06-14T11:15:20.119Z,5844
2017-06-14T11:16:21.416Z,5808
2017-06-14T11:17:22.664Z,5760
2017-06-14T11:18:23.917Z,5724
2017-06-14T11:19:25.183Z,5676
2017-06-14T11:20:26.442Z,5672
2017-06-14T11:21:27.800Z,5652
2017-06-14T11:22:29.069Z,5648
2017-06-14T11:23:30.325Z,5628
2017-06-14T11:24:31.589Z,5624
2017-06-14T11:25:32.840Z,5528
2017-06-14T11:26:34.126Z,5452
2017-06-14T11:27:35.384Z,5420
2017-06-14T11:28:36.634Z,5368
2017-06-14T11:29:37.894Z,5368
2017-06-14T11:30:39.147Z,5440
2017-06-14T11:31:40.409Z,5488
2017-06-14T11:32:41.670Z,5468
2017-06-14T11:33:42.919Z,5432
2017-06-14T11:34:44.200Z,5392
2017-06-14T11:35:45.457Z,5300
2017-06-14T11:36:46.726Z,5148
2017-06-14T11:37:47.974Z,4980
2017-06-14T11:38:49.224Z,4820
2017-06-14T11:39:50.485Z,4728
2017-06-14T11:40:51.772Z,4656
2017-06-14T11:41:53.055Z,4568
2017-06-14T11:42:54.312Z,4508
2017-06-14T11:43:55.612Z,4452
2017-06-14T11:44:56.863Z,4444
2017-06-14T11:45:58.119Z,4440
2017-06-14T11:46:59.378Z,4460
2017-06-14T11:48:00.631Z,4468
2017-06-14T11:49:02.010Z,4460
2017-06-14T11:50:03.259Z,4452
2017-06-14T11:51:04.506Z,4448
2017-06-14T11:52:05.781Z,4468
2017-06-14T11:53:07.110Z,4500
2017-06-14T11:54:08.373Z,4520
2017-06-14T11:55:09.640Z,4536
2017-06-14T11:56:10.867Z,4548
2017-06-14T11:57:12.123Z,4544
2017-06-14T11:58:13.454Z,4540
2017-06-14T11:59:14.693Z,4568
2017-06-14T12:00:16.012Z,4592
2017-06-14T12:01:17.246Z,4592
2017-06-14T12:02:18.527Z,4604
2017-06-14T12:03:19.772Z,4616
2017-06-14T12:04:21.029Z,4576
2017-06-14T12:05:22.294Z,4492
2017-06-14T12:06:23.571Z,4420
2017-06-14T12:07:24.821Z,4388
2017-06-14T12:08:26.087Z,4336
2017-06-14T12:09:27.337Z,4300
2017-06-14T12:10:28.586Z,4268
2017-06-14T12:11:29.991Z,4264
2017-06-14T12:12:31.258Z,4304
2017-06-14T12:13:32.520Z,4288
2017-06-14T12:14:33.809Z,4260
2017-06-14T12:15:35.032Z,4256
2017-06-14T12:16:36.308Z,4236
2017-06-14T12:17:37.559Z,4220
2017-06-14T12:18:38.880Z,4236
2017-06-14T12:19:40.138Z,4228
2017-06-14T12:20:41.381Z,4236
2017-06-14T12:21:42.725Z,4192
2017-06-14T12:22:44.018Z,4144
2017-06-14T12:23:45.225Z,4152
2017-06-14T12:24:46.476Z,4132
2017-06-14T12:25:47.742Z,4112
2017-06-14T12:26:49.006Z,4068
2017-06-14T12:27:50.283Z,4064
2017-06-14T12:28:51.522Z,4048
2017-06-14T12:29:52.795Z,3996
2017-06-14T12:30:54.086Z,3952
2017-06-14T12:31:55.398Z,3964
2017-06-14T12:32:56.646Z,3928
2017-06-14T12:33:57.903Z,3904
2017-06-14T12:34:59.191Z,3860
2017-06-14T12:36:00.435Z,3832
2017-06-14T12:37:01.692Z,3792
2017-06-14T12:38:02.954Z,3764
2017-06-14T12:39:04.210Z,3732
2017-06-14T12:40:05.487Z,3716
2017-06-14T12:41:06.716Z,3712
2017-06-14T12:42:08.049Z,3704
2017-06-14T12:43:09.299Z,3704
2017-06-14T12:44:10.548Z,3696
2017-06-14T12:45:11.809Z,3704
2017-06-14T12:46:13.064Z,3712
2017-06-14T12:47:14.328Z,3712
2017-06-14T12:48:15.593Z,3696
2017-06-14T12:49:16.848Z,3800
2017-06-14T12:50:18.104Z,3880
2017-06-14T12:51:19.363Z,3972
2017-06-14T12:52:20.682Z,4012
2017-06-14T12:53:21.957Z,4012
2017-06-14T12:54:23.280Z,4008
2017-06-14T12:55:24.529Z,4000
2017-06-14T12:56:25.911Z,3992
2017-06-14T12:57:27.156Z,4044
2017-06-14T12:58:28.414Z,4060
2017-06-14T12:59:29.695Z,4028
2017-06-14T13:00:30.964Z,4016
2017-06-14T13:01:32.242Z,4004
2017-06-14T13:02:33.496Z,3996
2017-06-14T13:03:34.771Z,3992
2017-06-14T13:04:36.046Z,3988
2017-06-14T13:05:37.385Z,3992
2017-06-14T13:06:38.598Z,4000
2017-06-14T13:07:39.877Z,4004
2017-06-14T13:08:41.124Z,3984
2017-06-14T13:09:42.383Z,3992
2017-06-14T13:10:43.646Z,3996
2017-06-14T13:11:44.917Z,4012
2017-06-14T13:12:46.254Z,4016
2017-06-14T13:13:47.677Z,4032
2017-06-14T13:14:48.946Z,4076
2017-06-14T13:15:50.189Z,4096
2017-06-14T13:16:51.475Z,4084
2017-06-14T13:17:52.695Z,4092
2017-06-14T13:18:53.950Z,4128
2017-06-14T13:19:55.195Z,4128
2017-06-14T13:20:56.464Z,4140
2017-06-14T13:21:57.699Z,4180
2017-06-14T13:22:58.953Z,4212
2017-06-14T13:24:00.289Z,4232
2017-06-14T13:25:01.542Z,4212
2017-06-14T13:26:02.796Z,4188
2017-06-14T13:27:04.046Z,4144
2017-06-14T13:28:05.315Z,4124
2017-06-14T13:29:06.673Z,4084
2017-06-14T13:30:08.012Z,4056
2017-06-14T13:31:09.236Z,4012
2017-06-14T13:32:10.496Z,3992
2017-06-14T13:33:11.820Z,3972
2017-06-14T13:34:13.070Z,3944
2017-06-14T13:35:14.391Z,3900
2017-06-14T13:36:15.638Z,3828
2017-06-14T13:37:16.941Z,3744
2017-06-14T13:38:18.170Z,3708
2017-06-14T13:39:19.425Z,3668
2017-06-14T13:40:20.685Z,3632
2017-06-14T13:41:21.973Z,3588
2017-06-14T13:42:23.383Z,3564